Time;durP1;ratioP1;P1;durP2;ratioP2;P2;SDS_P1;SDS_P2;PMS_P1;PMS_P2;Temp;Humidity;BMP_temperature;BMP_pressure;BME280_temperature;BME280_humidity;BME280_pressure;Samples;Min_cycle;Max_cycle;Signal;HPM_P1;HPM_P2
2022/07/30 00:02:09;;;;;;;33.22;22.63;;;;;;;;;;6247566;28;20060;-73
2022/07/30 00:05:11;;;;;;;31.90;23.25;;;;;;;;;;6247551;28;20243;-72
2022/07/30 00:08:13;;;;;;;32.72;22.23;;;;;;;;;;6254877;28;20356;-72
2022/07/30 00:11:14;;;;;;;31.92;23.05;;;;;;;;;;6253961;28;20224;-73
2022/07/30 00:14:16;;;;;;;33.13;23.63;;;;;;;;;;6248614;28;20104;-74
2022/07/30 00:17:19;;;;;;;35.22;23.58;;;;;;;;;;6256263;28;20057;-75
2022/07/30 00:20:21;;;;;;;36.33;24.95;;;;;;;;;;6257088;28;20045;-76
2022/07/30 00:23:22;;;;;;;30.38;21.67;;;;;;;;;;6253525;28;20100;-73
2022/07/30 00:26:24;;;;;;;36.05;25.00;;;;;;;;;;6251301;28;20057;-73
2022/07/30 00:29:26;;;;;;;35.20;24.83;;;;;;;;;;6252832;28;20064;-72
2022/07/30 00:32:29;;;;;;;30.95;22.60;;;;;;;;;;6252445;28;20557;-73
2022/07/30 00:35:30;;;;;;;27.88;22.67;;;;;;;;;;6252225;28;20057;-73
2022/07/30 00:38:32;;;;;;;29.95;21.65;;;;;;;;;;6255474;28;20109;-73
2022/07/30 00:41:36;;;;;;;31.95;22.60;;;;;;;;;;6254228;28;20371;-76
2022/07/30 00:44:38;;;;;;;33.35;22.38;;;;;;;;;;6252563;28;20060;-73
2022/07/30 00:47:41;;;;;;;33.85;22.45;;;;;;;;;;6253800;28;20245;-72
2022/07/30 00:50:43;;;;;;;30.50;20.15;;;;;;;;;;6252252;28;20046;-75
2022/07/30 00:53:45;;;;;;;29.80;21.98;;;;;;;;;;6253707;28;20053;-73
2022/07/30 00:56:47;;;;;;;29.20;20.70;;;;;;;;;;6251455;28;20037;-75
2022/07/30 00:59:49;;;;;;;29.27;20.90;;;;;;;;;;6254529;28;20053;-72
2022/07/30 01:02:52;;;;;;;27.48;19.75;;;;;;;;;;6252236;28;20328;-73
2022/07/30 01:05:54;;;;;;;29.45;20.38;;;;;;;;;;6255978;28;20104;-73
2022/07/30 01:08:55;;;;;;;27.27;19.73;;;;;;;;;;6253895;28;20052;-74
2022/07/30 01:11:58;;;;;;;29.35;21.42;;;;;;;;;;6253855;28;20048;-72
2022/07/30 01:15:00;;;;;;;30.58;21.17;;;;;;;;;;6255266;28;20087;-72
2022/07/30 01:18:05;;;;;;;28.73;20.92;;;;;;;;;;6256286;28;20060;-73
2022/07/30 01:21:09;;;;;;;35.20;21.92;;;;;;;;;;6253891;28;20084;-73
2022/07/30 01:24:21;;;;;;;28.88;19.48;;;;;;;;;;6251964;28;20276;-72
2022/07/30 01:27:25;;;;;;;27.90;18.70;;;;;;;;;;6251916;28;20450;-73
2022/07/30 01:30:29;;;;;;;27.73;18.30;;;;;;;;;;6252197;28;20088;-72
2022/07/30 01:33:31;;;;;;;24.17;18.23;;;;;;;;;;6252982;28;20088;-72
2022/07/30 01:36:33;;;;;;;26.27;17.70;;;;;;;;;;6254261;28;20050;-72
2022/07/30 01:39:36;;;;;;;24.38;16.65;;;;;;;;;;6251444;28;20045;-74
2022/07/30 01:42:40;;;;;;;22.43;16.80;;;;;;;;;;6254591;28;20351;-72
2022/07/30 01:45:42;;;;;;;24.20;16.92;;;;;;;;;;6251866;28;20056;-72
2022/07/30 01:48:45;;;;;;;22.73;17.35;;;;;;;;;;6252024;28;20061;-72
2022/07/30 01:51:48;;;;;;;23.75;16.52;;;;;;;;;;6254159;28;20101;-71
2022/07/30 01:54:52;;;;;;;21.15;15.48;;;;;;;;;;6252311;28;20060;-72
2022/07/30 01:57:55;;;;;;;;;;;;;;;;;;6255559;28;20107;-73
2022/07/30 02:00:57;;;;;;;20.50;15.10;;;;;;;;;;6251283;28;19924;-72
2022/07/30 02:04:00;;;;;;;20.15;14.85;;;;;;;;;;6248498;28;20065;-72
2022/07/30 02:07:04;;;;;;;18.42;14.35;;;;;;;;;;6255674;28;20091;-72
2022/07/30 02:10:12;;;;;;;20.38;15.32;;;;;;;;;;6247703;28;20049;-71
2022/07/30 02:13:18;;;;;;;18.38;14.32;;;;;;;;;;6252552;28;20068;-72
2022/07/30 02:16:24;;;;;;;17.92;13.25;;;;;;;;;;6255920;28;20153;-73
2022/07/30 02:19:31;;;;;;;18.25;13.48;;;;;;;;;;6251669;28;20049;-71
2022/07/30 02:22:37;;;;;;;19.55;14.15;;;;;;;;;;6246988;28;20060;-75
2022/07/30 02:25:44;;;;;;;17.60;12.48;;;;;;;;;;6249679;28;20320;-71
2022/07/30 02:28:50;;;;;;;15.27;11.88;;;;;;;;;;6249375;28;20045;-74
2022/07/30 02:31:52;;;;;;;15.57;11.32;;;;;;;;;;6252077;28;20049;-73
2022/07/30 02:34:57;;;;;;;15.38;12.10;;;;;;;;;;6230300;28;20069;-74
2022/07/30 02:38:00;;;;;;;12.75;11.13;;;;;;;;;;6234427;28;20053;-72
2022/07/30 02:41:03;;;;;;;15.38;11.55;;;;;;;;;;6232863;28;20049;-72
2022/07/30 02:44:06;;;;;;;16.40;11.85;;;;;;;;;;6225781;28;20076;-72
2022/07/30 02:47:09;;;;;;;17.48;11.75;;;;;;;;;;6225371;28;20054;-72
2022/07/30 02:50:11;;;;;;;16.80;12.45;;;;;;;;;;6231922;28;20054;-72
2022/07/30 02:53:13;;;;;;;14.30;10.27;;;;;;;;;;6251148;28;20324;-72
2022/07/30 02:56:17;;;;;;;15.47;11.03;;;;;;;;;;6256704;28;20363;-72
2022/07/30 02:59:20;;;;;;;15.82;11.27;;;;;;;;;;6255655;28;20041;-72
2022/07/30 03:02:22;;;;;;;15.90;12.10;;;;;;;;;;6256347;28;20053;-71
2022/07/30 03:05:24;;;;;;;15.00;11.80;;;;;;;;;;6255063;28;20056;-71
2022/07/30 03:08:27;;;;;;;14.98;12.18;;;;;;;;;;6251728;28;20272;-72
2022/07/30 03:11:29;;;;;;;16.30;11.93;;;;;;;;;;6258543;28;20102;-72
2022/07/30 03:14:32;;;;;;;17.63;12.48;;;;;;;;;;6249666;28;20237;-70
2022/07/30 03:17:38;;;;;;;15.38;12.07;;;;;;;;;;6255112;28;20058;-74
2022/07/30 03:20:42;;;;;;;17.38;12.88;;;;;;;;;;6255956;28;20053;-71
2022/07/30 03:23:44;;;;;;;16.40;12.32;;;;;;;;;;6258309;28;20088;-71
2022/07/30 03:26:46;;;;;;;18.00;11.90;;;;;;;;;;6255265;28;20048;-71
2022/07/30 03:29:49;;;;;;;16.05;12.32;;;;;;;;;;6252984;28;20065;-70
2022/07/30 03:32:52;;;;;;;14.10;10.32;;;;;;;;;;6252072;28;20328;-71
2022/07/30 03:35:54;;;;;;;11.77;9.90;;;;;;;;;;6250300;28;20053;-71
2022/07/30 03:38:56;;;;;;;12.55;9.05;;;;;;;;;;6251628;28;20342;-70
2022/07/30 03:41:57;;;;;;;9.57;7.95;;;;;;;;;;6252533;28;20057;-71
2022/07/30 03:45:01;;;;;;;10.15;8.10;;;;;;;;;;6252061;28;20271;-71
2022/07/30 03:48:04;;;;;;;8.98;7.53;;;;;;;;;;6249428;28;20056;-71
2022/07/30 03:51:08;;;;;;;11.77;9.10;;;;;;;;;;6251696;28;20053;-74
2022/07/30 03:54:11;;;;;;;11.27;8.02;;;;;;;;;;6249085;28;20251;-71
2022/07/30 03:57:12;;;;;;;12.43;8.20;;;;;;;;;;6252385;28;20045;-71
2022/07/30 04:00:17;;;;;;;11.38;8.70;;;;;;;;;;6249031;28;20058;-71
2022/07/30 04:03:24;;;;;;;10.98;8.60;;;;;;;;;;6252410;28;20375;-73
2022/07/30 04:06:26;;;;;;;12.20;9.68;;;;;;;;;;6245906;28;20073;-71
2022/07/30 04:09:28;;;;;;;11.82;9.38;;;;;;;;;;6247801;28;20049;-71
2022/07/30 04:12:30;;;;;;;11.25;9.30;;;;;;;;;;6246214;28;20108;-74
2022/07/30 04:15:37;;;;;;;12.60;8.85;;;;;;;;;;6247863;28;20045;-70
2022/07/30 04:18:44;;;;;;;15.98;10.50;;;;;;;;;;6244720;28;20053;-73
2022/07/30 04:21:47;;;;;;;14.27;9.70;;;;;;;;;;6251698;28;20103;-73
2022/07/30 04:24:50;;;;;;;12.32;9.35;;;;;;;;;;6248780;28;20061;-73
2022/07/30 04:27:52;;;;;;;12.13;9.93;;;;;;;;;;6248688;28;20263;-76
2022/07/30 04:30:56;;;;;;;11.45;9.48;;;;;;;;;;6252116;28;20053;-73
2022/07/30 04:33:57;;;;;;;14.23;9.43;;;;;;;;;;6247150;28;20046;-73
2022/07/30 04:36:59;;;;;;;13.30;9.90;;;;;;;;;;6251150;28;20062;-73
2022/07/30 04:40:01;;;;;;;10.65;8.48;;;;;;;;;;6249303;28;20045;-74
2022/07/30 04:43:02;;;;;;;10.52;8.07;;;;;;;;;;6251382;28;20228;-73
2022/07/30 04:46:05;;;;;;;9.38;6.95;;;;;;;;;;6249081;28;20355;-73
2022/07/30 04:49:07;;;;;;;8.68;6.75;;;;;;;;;;6243056;28;20045;-73
2022/07/30 04:52:10;;;;;;;9.25;6.22;;;;;;;;;;6250634;28;20057;-76
2022/07/30 04:55:12;;;;;;;10.38;6.50;;;;;;;;;;6249139;28;20044;-73
2022/07/30 04:58:15;;;;;;;6.63;5.13;;;;;;;;;;6248278;28;20069;-76
2022/07/30 05:01:23;;;;;;;6.47;4.93;;;;;;;;;;6251143;28;20057;-72
2022/07/30 05:04:25;;;;;;;8.43;4.80;;;;;;;;;;6252277;28;20272;-71
2022/07/30 05:07:27;;;;;;;8.88;5.25;;;;;;;;;;6254788;28;20053;-71
2022/07/30 05:10:29;;;;;;;6.80;5.25;;;;;;;;;;6254235;28;20045;-70
2022/07/30 05:13:31;;;;;;;5.72;5.15;;;;;;;;;;6254565;28;20060;-71
2022/07/30 05:16:34;;;;;;;5.93;5.10;;;;;;;;;;6254279;28;20324;-72
2022/07/30 05:19:36;;;;;;;8.52;4.65;;;;;;;;;;6253055;28;20268;-72
2022/07/30 05:22:37;;;;;;;6.15;3.35;;;;;;;;;;6253939;28;20046;-71
2022/07/30 05:25:39;;;;;;;7.65;3.28;;;;;;;;;;6256075;28;20778;-72
2022/07/30 05:28:41;;;;;;;3.75;2.90;;;;;;;;;;6256202;28;20064;-72
2022/07/30 05:31:44;;;;;;;3.50;2.92;;;;;;;;;;6254538;28;20049;-71
2022/07/30 05:34:45;;;;;;;3.78;3.13;;;;;;;;;;6253145;28;20050;-71
2022/07/30 05:37:47;;;;;;;3.42;2.83;;;;;;;;;;6258890;28;20328;-72
2022/07/30 05:40:50;;;;;;;5.05;3.00;;;;;;;;;;6250661;28;20051;-71
2022/07/30 05:43:52;;;;;;;5.35;3.47;;;;;;;;;;6256296;28;20049;-71
2022/07/30 05:46:55;;;;;;;4.78;3.25;;;;;;;;;;6252120;28;20057;-71
2022/07/30 05:49:56;;;;;;;5.25;3.67;;;;;;;;;;6252930;28;20052;-71
2022/07/30 05:52:58;;;;;;;5.50;3.70;;;;;;;;;;6255393;28;20053;-71
2022/07/30 05:56:00;;;;;;;7.18;3.47;;;;;;;;;;6252198;28;20335;-72
2022/07/30 05:59:01;;;;;;;5.05;3.88;;;;;;;;;;6249525;28;20050;-72
2022/07/30 06:02:05;;;;;;;4.68;3.50;;;;;;;;;;6252115;28;20045;-72
2022/07/30 06:05:08;;;;;;;8.43;3.47;;;;;;;;;;6254054;28;20110;-71
2022/07/30 06:08:10;;;;;;;7.00;3.72;;;;;;;;;;6257506;28;20049;-71
2022/07/30 06:11:11;;;;;;;4.40;4.00;;;;;;;;;;6252029;28;20056;-71
2022/07/30 06:14:13;;;;;;;5.57;3.90;;;;;;;;;;6257445;28;20060;-71
2022/07/30 06:17:16;;;;;;;4.25;3.60;;;;;;;;;;6251446;28;20041;-71
2022/07/30 06:20:19;;;;;;;4.50;3.95;;;;;;;;;;6248958;28;20344;-71
2022/07/30 06:23:21;;;;;;;5.45;4.00;;;;;;;;;;6252453;28;20057;-72
2022/07/30 06:26:23;;;;;;;7.13;4.45;;;;;;;;;;6248124;28;20107;-71
2022/07/30 06:29:25;;;;;;;5.18;4.20;;;;;;;;;;6252082;28;20041;-71
2022/07/30 06:32:28;;;;;;;6.90;4.30;;;;;;;;;;6249634;28;20072;-71
2022/07/30 19:13:55;;;;;;;3.88;1.50;;;;;;;;;;6348459;27;20154;-75
2022/07/30 19:16:57;;;;;;;2.78;1.00;;;;;;;;;;6304535;28;20056;-79
2022/07/30 19:19:58;;;;;;;2.05;1.35;;;;;;;;;;6298632;28;20117;-71
2022/07/30 19:23:01;;;;;;;1.83;1.20;;;;;;;;;;6304746;28;20048;-71
2022/07/30 19:26:04;;;;;;;;;;;;;;;;;;6303756;28;20047;-72
2022/07/30 19:29:08;;;;;;;;;;;;;;;;;;6306636;28;19916;-72
2022/07/30 19:32:10;;;;;;;2.83;1.50;;;;;;;;;;6299211;28;19931;-72
2022/07/30 19:35:11;;;;;;;2.15;1.25;;;;;;;;;;6301655;28;20064;-72
2022/07/30 19:38:13;;;;;;;2.28;1.20;;;;;;;;;;6303130;28;20053;-73
2022/07/30 19:41:15;;;;;;;3.70;1.40;;;;;;;;;;6307892;28;20055;-75
2022/07/30 19:44:18;;;;;;;3.20;2.00;;;;;;;;;;6302002;28;20052;-73
2022/07/30 19:47:24;;;;;;;3.22;1.85;;;;;;;;;;6303244;28;20040;-73
2022/07/30 19:50:27;;;;;;;2.28;1.63;;;;;;;;;;6301490;28;20045;-74
2022/07/30 19:53:29;;;;;;;1.77;1.40;;;;;;;;;;6303802;28;20235;-73
2022/07/30 19:56:32;;;;;;;2.57;1.43;;;;;;;;;;6306722;28;20059;-70
2022/07/30 19:59:35;;;;;;;1.95;1.20;;;;;;;;;;6299134;28;20136;-74
2022/07/30 20:02:37;;;;;;;1.65;1.33;;;;;;;;;;6296060;28;20221;-70
2022/07/30 20:05:39;;;;;;;1.83;1.40;;;;;;;;;;6300799;28;20119;-71
2022/07/30 20:08:40;;;;;;;1.70;1.55;;;;;;;;;;6300657;28;20053;-72
2022/07/30 20:11:42;;;;;;;1.63;1.40;;;;;;;;;;6299352;28;20338;-71
2022/07/30 20:14:45;;;;;;;3.38;1.50;;;;;;;;;;6292685;28;20155;-72
2022/07/30 20:17:47;;;;;;;3.45;1.45;;;;;;;;;;6296018;28;20059;-70
2022/07/30 20:20:48;;;;;;;1.60;1.25;;;;;;;;;;6298547;28;20059;-71
2022/07/30 20:23:50;;;;;;;3.42;1.20;;;;;;;;;;6288082;28;20107;-71
2022/07/30 20:26:51;;;;;;;2.70;1.20;;;;;;;;;;6278197;28;20052;-72
2022/07/30 20:29:54;;;;;;;1.23;0.90;;;;;;;;;;6293895;28;20274;-74
2022/07/30 20:32:56;;;;;;;1.48;1.13;;;;;;;;;;6309094;28;20051;-72
2022/07/30 20:35:58;;;;;;;1.17;0.95;;;;;;;;;;6306066;28;20067;-72
2022/07/30 20:38:59;;;;;;;1.63;1.20;;;;;;;;;;6307772;28;20052;-71
2022/07/30 20:42:11;;;;;;;2.78;1.10;;;;;;;;;;6306742;28;20064;-72
2022/07/30 20:45:14;;;;;;;1.67;0.95;;;;;;;;;;6306879;28;20235;-75
2022/07/30 20:48:17;;;;;;;1.92;1.10;;;;;;;;;;6307542;28;20058;-73
2022/07/30 20:51:18;;;;;;;1.07;0.87;;;;;;;;;;6308370;28;20311;-70
2022/07/30 20:54:20;;;;;;;1.27;0.90;;;;;;;;;;6307119;28;20350;-71
2022/07/30 20:57:22;;;;;;;3.80;1.08;;;;;;;;;;6305456;28;20048;-72
2022/07/30 21:00:25;;;;;;;9.68;1.17;;;;;;;;;;6305418;27;20095;-72
2022/07/30 21:03:27;;;;;;;2.47;0.95;;;;;;;;;;6284888;28;20057;-75
2022/07/30 21:06:28;;;;;;;2.17;1.00;;;;;;;;;;6279837;27;20049;-72
2022/07/30 21:09:30;;;;;;;1.50;1.27;;;;;;;;;;6283830;28;20055;-72
2022/07/30 21:12:32;;;;;;;1.35;1.25;;;;;;;;;;6285659;28;20051;-71
2022/07/30 21:15:35;;;;;;;1.85;1.20;;;;;;;;;;6283973;28;20152;-72
2022/07/30 21:18:36;;;;;;;1.70;1.05;;;;;;;;;;6279232;28;20065;-72
2022/07/30 21:21:39;;;;;;;4.50;1.20;;;;;;;;;;6287799;28;20151;-71
2022/07/30 21:24:41;;;;;;;;;;;;;;;;;;6303072;28;20122;-72
2022/07/30 21:27:42;;;;;;;1.98;1.10;;;;;;;;;;6286325;27;21333;-71
2022/07/30 21:30:45;;;;;;;1.85;1.25;;;;;;;;;;6287866;28;20056;-72
2022/07/30 21:33:47;;;;;;;0.80;0.80;;;;;;;;;;6286156;27;20056;-72
2022/07/30 21:36:49;;;;;;;1.85;1.13;;;;;;;;;;6286580;28;20091;-71
2022/07/30 21:39:50;;;;;;;2.03;1.35;;;;;;;;;;6284708;28;20051;-71
2022/07/30 21:42:52;;;;;;;2.40;1.17;;;;;;;;;;6285405;28;20057;-71
2022/07/30 21:45:55;;;;;;;2.10;1.00;;;;;;;;;;6285855;28;20052;-73
2022/07/30 21:48:57;;;;;;;3.05;1.20;;;;;;;;;;6272854;28;20063;-73
2022/07/30 21:51:59;;;;;;;1.67;1.00;;;;;;;;;;6285508;27;20304;-73
2022/07/30 21:55:00;;;;;;;3.08;1.42;;;;;;;;;;6283280;28;20102;-76
2022/07/30 21:58:02;;;;;;;2.15;1.33;;;;;;;;;;6284584;27;20064;-74
2022/07/30 22:01:07;;;;;;;1.60;1.20;;;;;;;;;;6286383;27;20335;-75
2022/07/30 22:04:08;;;;;;;5.75;1.33;;;;;;;;;;6283935;28;20053;-74
2022/07/30 22:07:10;;;;;;;2.20;1.35;;;;;;;;;;6288064;28;20045;-72
2022/07/30 22:10:12;;;;;;;5.63;1.30;;;;;;;;;;6283455;28;20087;-72
2022/07/30 22:13:14;;;;;;;4.40;1.35;;;;;;;;;;6286001;28;20056;-73
2022/07/30 22:16:17;;;;;;;5.47;1.65;;;;;;;;;;6284605;28;20053;-73
2022/07/30 22:19:20;;;;;;;;;;;;;;;;;;6285531;28;20116;-73
2022/07/30 22:22:22;;;;;;;3.67;1.73;;;;;;;;;;6284541;28;19923;-73
2022/07/30 22:25:24;;;;;;;2.28;1.40;;;;;;;;;;6282747;28;20049;-74
2022/07/30 22:28:25;;;;;;;2.00;1.40;;;;;;;;;;6282649;28;20082;-73
2022/07/30 22:31:28;;;;;;;2.28;1.40;;;;;;;;;;6296133;28;20052;-74
2022/07/30 22:34:30;;;;;;;;;;;;;;;;;;6305409;28;20052;-74
2022/07/30 22:37:31;;;;;;;53.72;34.83;;;;;;;;;;6286877;27;20099;-75
2022/07/30 22:40:33;;;;;;;39.15;21.35;;;;;;;;;;6285361;28;20271;-74
2022/07/30 22:43:35;;;;;;;62.45;38.03;;;;;;;;;;6285454;28;20057;-75
2022/07/30 22:46:38;;;;;;;25.30;15.35;;;;;;;;;;6285300;27;20328;-73
2022/07/30 22:49:39;;;;;;;;;;;;;;;;;;6285030;28;20111;-75
2022/07/30 22:52:41;;;;;;;54.95;32.08;;;;;;;;;;6283691;28;20154;-75
2022/07/30 22:55:43;;;;;;;68.33;43.70;;;;;;;;;;6286846;28;20053;-75
2022/07/30 22:58:45;;;;;;;57.78;35.58;;;;;;;;;;6283567;28;20041;-75
2022/07/30 23:01:48;;;;;;;22.85;14.60;;;;;;;;;;6282417;28;20055;-75
2022/07/30 23:04:49;;;;;;;17.02;11.65;;;;;;;;;;6282923;28;21272;-76
2022/07/30 23:07:51;;;;;;;32.20;21.60;;;;;;;;;;6285627;27;20044;-73
2022/07/30 23:10:53;;;;;;;5.55;3.00;;;;;;;;;;6284574;28;20053;-73
2022/07/30 23:13:58;;;;;;;1.77;1.63;;;;;;;;;;6283169;28;20351;-74
2022/07/30 23:17:01;;;;;;;2.70;1.30;;;;;;;;;;6291799;28;20036;-74
2022/07/30 23:20:02;;;;;;;;;;;;;;;;;;6307185;28;21030;-74
2022/07/30 23:23:04;;;;;;;1.83;1.33;;;;;;;;;;6306934;28;19951;-74
2022/07/30 23:26:07;;;;;;;4.13;1.40;;;;;;;;;;6307438;28;20131;-74
2022/07/30 23:29:08;;;;;;;2.38;1.20;;;;;;;;;;6283114;28;20064;-72
2022/07/30 23:32:11;;;;;;;2.42;1.67;;;;;;;;;;6285029;28;20056;-71
2022/07/30 23:35:13;;;;;;;;;;;;;;;;;;6303581;28;20145;-73
2022/07/30 23:38:15;;;;;;;1.55;1.10;;;;;;;;;;6308171;28;19970;-73
2022/07/30 23:41:16;;;;;;;2.67;1.23;;;;;;;;;;6310920;28;20257;-75
2022/07/30 23:44:18;;;;;;;2.10;1.30;;;;;;;;;;6310347;28;20097;-73
2022/07/30 23:47:21;;;;;;;1.45;1.20;;;;;;;;;;6308969;28;20114;-73
2022/07/30 23:50:23;;;;;;;;;;;;;;;;;;6306685;28;20890;-74
2022/07/30 23:53:25;;;;;;;2.33;1.17;;;;;;;;;;6309771;28;19928;-73
2022/07/30 23:56:27;;;;;;;3.47;1.20;;;;;;;;;;6305933;28;20322;-74
2022/07/30 23:59:28;;;;;;;1.92;1.25;;;;;;;;;;6310549;28;20043;-74
